createdAt,value
2022-11-16T00:03:40.619Z,13.57
2022-11-16T00:18:32.835Z,14.98
2022-11-16T00:33:24.213Z,17.13
2022-11-16T00:48:15.887Z,16.88
2022-11-16T01:03:07.132Z,16.91
2022-11-16T01:17:58.044Z,24.63
2022-11-16T01:32:49.680Z,19.51
2022-11-16T01:47:41.122Z,21.27
2022-11-16T02:02:34.686Z,23.08
2022-11-16T02:17:38.356Z,24.48
2022-11-16T02:32:35.358Z,24.66
2022-11-16T02:47:28.221Z,23.11
2022-11-16T03:02:34.485Z,23.87
2022-11-16T03:17:41.867Z,23.62
2022-11-16T03:32:49.410Z,20.72
2022-11-16T03:47:45.009Z,18.07
2022-11-16T04:02:37.301Z,18.84
2022-11-16T04:17:47.310Z,13.51
2022-11-16T04:33:02.075Z,11.36
2022-11-16T04:47:59.453Z,9.58
2022-11-16T05:02:51.418Z,11.76
2022-11-16T05:17:43.192Z,16.57
2022-11-16T05:32:34.858Z,17.51
2022-11-16T05:47:26.147Z,21.24
2022-11-16T06:02:18.095Z,18.63
2022-11-16T06:17:10.185Z,20.00
2022-11-16T06:32:01.939Z,20.18
2022-11-16T06:46:52.858Z,17.74
2022-11-16T07:01:45.042Z,17.93
2022-11-16T07:16:36.879Z,19.67
2022-11-16T07:31:28.728Z,14.19
2022-11-16T07:46:45.440Z,9.33
2022-11-16T08:01:12.305Z,9.07
2022-11-16T08:16:04.186Z,6.10
2022-11-16T08:30:56.810Z,6.69
2022-11-16T08:45:49.222Z,3.92
2022-11-16T09:00:47.719Z,4.93
2022-11-16T09:15:37.650Z,2.71
2022-11-16T09:30:30.113Z,2.98
2022-11-16T09:45:42.451Z,2.93
2022-11-16T10:00:40.311Z,4.13
2022-11-16T10:15:50.886Z,4.26
2022-11-16T10:30:59.561Z,3.12
2022-11-16T10:46:05.087Z,3.96
2022-11-16T11:01:00.965Z,2.73
2022-11-16T11:16:17.332Z,1.77
2022-11-16T11:31:27.649Z,4.18
2022-11-16T11:46:35.879Z,3.18
2022-11-16T12:01:31.789Z,2.67
2022-11-16T12:16:46.248Z,4.51
2022-11-16T12:32:09.280Z,2.87
2022-11-16T12:47:15.386Z,2.53
2022-11-16T13:02:11.836Z,3.46
2022-11-16T13:17:05.401Z,3.67
2022-11-16T13:32:05.236Z,5.37
2022-11-16T13:47:01.076Z,4.84
2022-11-16T14:01:56.858Z,4.21
2022-11-16T14:16:51.926Z,4.68
2022-11-16T14:31:55.038Z,3.23
2022-11-16T14:46:50.704Z,5.31
2022-11-16T15:01:41.038Z,3.84
2022-11-16T15:16:31.688Z,4.12
2022-11-16T15:31:22.723Z,5.01
2022-11-16T15:46:12.814Z,3.04
2022-11-16T16:01:02.092Z,4.87
2022-11-16T16:15:53.689Z,2.76
2022-11-16T16:30:54.776Z,3.20
2022-11-16T16:45:50.693Z,4.09
2022-11-16T17:00:36.448Z,3.82
2022-11-16T17:15:26.627Z,3.50
2022-11-16T17:30:17.468Z,4.67
2022-11-16T18:31:34.974Z,4.21
2022-11-16T19:01:30.994Z,2.14
2022-11-16T19:16:23.123Z,6.48
2022-11-16T19:31:15.677Z,4.92
2022-11-16T19:46:08.431Z,3.52
2022-11-16T20:01:04.709Z,7.21
2022-11-16T20:15:57.875Z,3.99
2022-11-16T20:30:49.435Z,4.94
2022-11-16T20:45:40.473Z,2.79
2022-11-16T21:00:31.845Z,3.43
2022-11-16T21:15:22.520Z,3.28
2022-11-16T21:30:13.800Z,3.71
2022-11-16T21:45:05.826Z,1.77
2022-11-16T21:59:57.560Z,2.46
2022-11-16T22:14:49.246Z,2.80
2022-11-16T22:29:40.238Z,3.23
2022-11-16T22:44:32.887Z,2.11
2022-11-16T22:59:26.158Z,3.26
2022-11-16T23:14:35.540Z,3.36
2022-11-16T23:29:29.828Z,5.24
2022-11-16T23:44:20.965Z,1.92
2022-11-16T23:59:12.318Z,2.73
